2021-04-12 - 18:59:00

SR: 0438 - SS: 1822

RWY: 25


OBSERVATION: n/a

RVR Mean 1 min: (Runway Visual Range)
A: P2000 - B: P2000 - C: P2000
RVR Mean 10 min:
A: P2000 - B: P2000 - C: P2000
WARNING: n/a
W25: 240-270(260-06kt) 05kt-08kt
W07: 240-280(260-06kt) 04kt-09kt
OTHER: n/a

QFE: (tatsächlicher Luftdruck) 1022.6 hPa = 30.17 inHg
QNH:(Luftdruck auf Meereshöhe) 1028.5 hPa = 30.35 inHg
Temperatur: 2.8 °C
Dew point(Taupunkt): -0.1 °C

METAR:  00923 SADL31 EDDG 121850 METAR EDDG 121850Z 26006KT 9999 FEW030CB 03/M00 Q1028 NOSIG= 
METAR (aus weather.noaa.gov):
2021/04/12 18:50 EDDG 121850Z 26006KT 9999 FEW030CB 03/M00 Q1028 NOSIG

TAF (aus weather.noaa.gov):
2021/04/12 18:27 TAF EDDG 121700Z 1218/1318 VRB03KT 9999 SCT030 TEMPO 1218/1219 SHRAGS BKN030CB BECMG 1218/1221 25005KT BECMG 1307/1310 30010KT PROB30 TEMPO 1312/1316 SHRAGS BKN030TCU BECMG 1316/1318 30005KT
NOWCAST
255
FODL44 EDDG 121800
FODL44 EDDG 2104121805
# Nowcasting EDDG 12.04.2021 18:05 UTC
Parameter/Stunde19202122230001
Windrichtung250250240240230240230
Windgeschwindigkeit5444444
Böen--------------
Lufttemperatur 3 2 2 1 1 0-0
Taupunkt-1-1-1-1-2-2-2
Belagstemperatur 1 0-1-2-2-3-3
Wetter-vorherrschend--------------
QNH1028102810281029102910291029
Wind in 5000 ft300/20290/20290/20290/15300/15300/15300/15
Wind in 3000 ft290/15290/20290/15290/15290/15290/15290/15
Wind in 2000 ft290/15290/15280/15280/15290/15290/15290/20
Wind in 1000 ft280/15280/15280/15280/15280/15280/20280/20